createdAt,value
2017-12-19T00:00:39.228Z,86.29
2017-12-19T00:01:19.752Z,86
2017-12-19T00:02:00.344Z,85.91
2017-12-19T00:02:40.856Z,86
2017-12-19T00:03:21.408Z,86
2017-12-19T00:04:01.947Z,85.72
2017-12-19T00:04:42.485Z,86.38
2017-12-19T00:05:23.011Z,86.47
2017-12-19T00:06:03.545Z,86.95
2017-12-19T00:06:44.076Z,86.38
2017-12-19T00:07:24.597Z,86.38
2017-12-19T00:08:05.176Z,86.67
2017-12-19T00:08:45.692Z,86.47
2017-12-19T00:09:26.221Z,86.76
2017-12-19T00:10:06.766Z,86.95
2017-12-19T00:10:47.363Z,86.86
2017-12-19T00:11:27.884Z,87.05
2017-12-19T00:12:08.412Z,86.86
2017-12-19T00:12:49.045Z,86.67
2017-12-19T00:13:29.520Z,86.86
2017-12-19T00:14:10.092Z,86.76
2017-12-19T00:14:50.598Z,86
2017-12-19T00:15:31.158Z,86.19
2017-12-19T00:16:11.691Z,86.76
2017-12-19T00:16:52.255Z,86.76
2017-12-19T00:17:32.810Z,86.76
2017-12-19T00:18:13.312Z,86.38
2017-12-19T00:18:53.858Z,86.1
2017-12-19T00:19:34.422Z,86.19
2017-12-19T00:20:15.051Z,86.47
2017-12-19T00:20:55.618Z,86.38
2017-12-19T00:21:36.149Z,85.91
2017-12-19T00:22:16.685Z,86.95
2017-12-19T00:22:57.235Z,86.57
2017-12-19T00:23:37.783Z,86.47
2017-12-19T00:24:18.308Z,87.43
2017-12-19T00:24:58.844Z,86.76
2017-12-19T00:25:39.382Z,87.24
2017-12-19T00:26:19.937Z,86.95
2017-12-19T00:27:00.494Z,86.86
2017-12-19T00:27:41.042Z,87.14
2017-12-19T00:28:21.590Z,88.19
2017-12-19T00:29:02.139Z,87.81
2017-12-19T00:29:42.705Z,88.19
2017-12-19T00:30:23.220Z,87.81
2017-12-19T00:31:03.760Z,87.9
2017-12-19T00:31:44.347Z,88
2017-12-19T00:32:24.902Z,88
2017-12-19T00:33:05.438Z,88
2017-12-19T00:33:45.986Z,88.28
2017-12-19T00:34:26.565Z,87.86
2017-12-19T00:35:07.083Z,88.47
2017-12-19T00:35:47.630Z,88.62
2017-12-19T00:36:28.177Z,88.85
2017-12-19T00:37:08.716Z,89.14
2017-12-19T00:37:49.227Z,89
2017-12-19T00:38:29.773Z,89.09
2017-12-19T00:39:10.326Z,88.95
2017-12-19T00:39:50.866Z,89.33
2017-12-19T00:40:31.404Z,89.19
2017-12-19T00:41:11.973Z,89.57
2017-12-19T00:41:52.501Z,88.62
2017-12-19T00:42:33.035Z,89.61
2017-12-19T00:43:13.562Z,89.42
2017-12-19T00:43:54.100Z,88.95
2017-12-19T00:44:34.625Z,89.14
2017-12-19T00:45:15.180Z,89.04
2017-12-19T00:45:55.755Z,88.95
2017-12-19T00:46:36.346Z,89.14
2017-12-19T00:47:16.873Z,89.14
2017-12-19T00:47:57.409Z,88.95
2017-12-19T00:48:37.944Z,89.33
2017-12-19T00:49:18.488Z,89.14
2017-12-19T00:49:59.019Z,88.47
2017-12-19T00:50:39.576Z,88.57
2017-12-19T00:51:20.129Z,88.57
2017-12-19T00:52:00.657Z,88.95
2017-12-19T00:52:41.222Z,89.04
2017-12-19T00:53:21.759Z,89.04
2017-12-19T00:54:02.296Z,88.76
2017-12-19T00:54:42.874Z,89.04
2017-12-19T00:55:23.420Z,89.14
2017-12-19T00:56:03.943Z,88.43
2017-12-19T00:56:44.496Z,88.85
2017-12-19T00:57:25.035Z,88.57
2017-12-19T00:58:05.581Z,89.04
2017-12-19T00:58:46.106Z,88.76
2017-12-19T00:59:26.643Z,89.61
2017-12-19T01:00:07.176Z,89.61
2017-12-19T01:00:47.752Z,89.38
2017-12-19T01:01:28.291Z,89.42
2017-12-19T01:02:08.850Z,89.33
2017-12-19T01:02:49.382Z,89.33
2017-12-19T01:03:29.937Z,88.85
2017-12-19T01:04:10.496Z,89.14
2017-12-19T01:04:51.013Z,88.85
2017-12-19T01:05:31.551Z,89.61
2017-12-19T01:06:12.088Z,89.42
2017-12-19T01:06:52.649Z,89.14
2017-12-19T01:07:33.197Z,88.85
2017-12-19T01:08:13.752Z,88.95
2017-12-19T01:08:54.306Z,88.38
2017-12-19T01:09:34.837Z,88.19
2017-12-19T01:10:15.356Z,88.76
2017-12-19T01:10:55.919Z,88.67
2017-12-19T01:11:36.465Z,88.47
2017-12-19T01:12:17.005Z,88.47
2017-12-19T01:12:57.556Z,88.47
2017-12-19T01:13:38.129Z,88.67
2017-12-19T01:14:18.649Z,88.85
2017-12-19T01:14:59.179Z,88.67
2017-12-19T01:15:39.742Z,88.47
2017-12-19T01:16:20.301Z,88.38
2017-12-19T01:17:00.841Z,88.67
2017-12-19T01:17:41.384Z,89
2017-12-19T01:18:21.922Z,88.95
2017-12-19T01:19:02.476Z,89.04
2017-12-19T01:19:43.016Z,88.85
2017-12-19T01:20:23.547Z,89.04
2017-12-19T01:21:04.066Z,88.85
2017-12-19T01:21:44.597Z,88.95
2017-12-19T01:22:25.121Z,88.19
2017-12-19T01:23:05.682Z,88.19
2017-12-19T01:23:46.232Z,88.47
2017-12-19T01:24:26.794Z,88.09
2017-12-19T01:25:07.339Z,88.47
2017-12-19T01:25:47.890Z,88.28
2017-12-19T01:26:28.444Z,88.95
2017-12-19T01:27:08.988Z,88.95
2017-12-19T01:27:49.547Z,89.71
2017-12-19T01:28:30.064Z,89.52
2017-12-19T01:29:10.620Z,89.14
2017-12-19T01:29:51.172Z,88.9
2017-12-19T01:30:31.729Z,89.14
2017-12-19T01:31:12.299Z,89.61
2017-12-19T01:31:52.842Z,89.33
2017-12-19T01:32:33.406Z,89.28
2017-12-19T01:33:13.938Z,89.9
2017-12-19T01:33:54.466Z,89.42
2017-12-19T01:34:34.999Z,89.71
2017-12-19T01:35:15.552Z,89.67
2017-12-19T01:35:56.060Z,89.57
2017-12-19T01:36:36.582Z,89.71
2017-12-19T01:37:17.141Z,89.38
2017-12-19T01:37:57.680Z,89.67
2017-12-19T01:38:38.200Z,89.8
2017-12-19T01:39:18.760Z,89.52
2017-12-19T01:39:59.281Z,89.52
2017-12-19T01:40:39.825Z,89.71
2017-12-19T01:41:20.385Z,89.76
2017-12-19T01:42:00.919Z,90.09
2017-12-19T01:42:41.453Z,89.9
2017-12-19T01:43:21.978Z,90
2017-12-19T01:44:02.548Z,89.95
2017-12-19T01:44:43.084Z,89.57
2017-12-19T01:45:23.646Z,90.71
2017-12-19T01:46:04.195Z,90.61
2017-12-19T01:46:44.750Z,90.42
2017-12-19T01:47:25.278Z,90.19
2017-12-19T01:48:05.806Z,89.71
2017-12-19T01:48:46.346Z,89.9
2017-12-19T01:49:26.870Z,89.9
2017-12-19T01:50:07.415Z,89.9
2017-12-19T01:50:47.963Z,89.52
2017-12-19T01:51:28.491Z,89.57
2017-12-19T01:52:09.032Z,89.8
2017-12-19T01:52:49.602Z,89.9
2017-12-19T01:53:30.146Z,89.76
2017-12-19T01:54:10.695Z,89.8
2017-12-19T01:54:51.235Z,90.19
2017-12-19T01:55:31.770Z,89.67
2017-12-19T01:56:12.330Z,89.57
2017-12-19T01:56:52.897Z,89.8
2017-12-19T01:57:33.477Z,89.61
2017-12-19T01:58:14.012Z,89.8
2017-12-19T01:58:54.545Z,89.9
2017-12-19T01:59:35.086Z,89.61
2017-12-19T02:00:15.631Z,89.52
2017-12-19T02:00:56.156Z,89.23
2017-12-19T02:01:36.723Z,89.33
2017-12-19T02:02:17.261Z,89.14
2017-12-19T02:02:57.793Z,88.38
2017-12-19T02:03:38.380Z,88
2017-12-19T02:04:18.881Z,87.9
2017-12-19T02:04:59.423Z,87.81
2017-12-19T02:05:40.001Z,87.43
2017-12-19T02:06:20.569Z,87.52
2017-12-19T02:07:01.098Z,87.43
2017-12-19T02:07:41.663Z,87.34
2017-12-19T02:08:22.223Z,87.34
2017-12-19T02:09:02.741Z,87.14
2017-12-19T02:09:43.318Z,86.91
2017-12-19T02:10:23.877Z,87.71
2017-12-19T02:11:04.411Z,88.09
2017-12-19T02:11:44.945Z,87.9
2017-12-19T02:12:25.499Z,88
2017-12-19T02:13:06.070Z,88.19
2017-12-19T02:13:46.610Z,88.67
2017-12-19T02:14:27.162Z,88.57
2017-12-19T02:15:07.734Z,88.57
2017-12-19T02:15:48.258Z,88.57
2017-12-19T02:16:28.816Z,87.9
2017-12-19T02:17:09.377Z,87.81
2017-12-19T02:17:49.931Z,88.09
2017-12-19T02:18:30.454Z,88.38
2017-12-19T02:19:11.017Z,87.9
2017-12-19T02:19:51.535Z,87.9
2017-12-19T02:20:32.077Z,88
2017-12-19T02:21:12.630Z,87.14
2017-12-19T02:21:53.159Z,87.14
2017-12-19T02:22:33.686Z,86.76
2017-12-19T02:23:14.233Z,86.95
2017-12-19T02:23:54.782Z,87.24
2017-12-19T02:24:35.320Z,86.76
2017-12-19T02:25:15.823Z,86.1
2017-12-19T02:25:56.376Z,85.91
2017-12-19T02:26:36.926Z,86.38
2017-12-19T02:27:17.484Z,86.38
2017-12-19T02:27:58.028Z,86.38
2017-12-19T02:28:38.569Z,86.19
2017-12-19T02:29:19.110Z,86.1
2017-12-19T02:29:59.627Z,86.19
2017-12-19T02:30:40.191Z,86.38
2017-12-19T02:31:20.744Z,86.1
2017-12-19T02:32:01.300Z,86.29
2017-12-19T02:32:41.864Z,86.38
2017-12-19T02:33:22.402Z,85.91
2017-12-19T02:34:02.915Z,86.53
2017-12-19T02:34:43.474Z,86.63
2017-12-19T02:35:23.989Z,87.19
2017-12-19T02:36:04.495Z,87.29
2017-12-19T02:36:45.042Z,86.86
2017-12-19T02:37:25.584Z,86.86
2017-12-19T02:38:06.098Z,87.05
2017-12-19T02:38:46.660Z,86.95
2017-12-19T02:39:27.190Z,86.57
2017-12-19T02:40:07.736Z,86.76
2017-12-19T02:40:48.280Z,86.53
2017-12-19T02:41:28.793Z,86.63
2017-12-19T02:42:09.330Z,87.29
2017-12-19T02:42:49.866Z,87.19
2017-12-19T02:43:30.418Z,88.15
2017-12-19T02:44:10.955Z,87.81
2017-12-19T02:44:51.466Z,87.9
2017-12-19T02:45:32.026Z,87.67
2017-12-19T02:46:12.580Z,87.19
2017-12-19T02:46:53.092Z,87.29
2017-12-19T02:47:33.608Z,87.34
2017-12-19T02:48:14.136Z,87.14
2017-12-19T02:48:54.696Z,87.24
2017-12-19T02:49:35.232Z,87.01
2017-12-19T02:50:15.787Z,87.05
2017-12-19T02:50:56.360Z,87.62
2017-12-19T02:51:36.907Z,87.24
2017-12-19T02:52:17.458Z,86.95
2017-12-19T02:52:57.970Z,86.67
2017-12-19T02:53:38.524Z,87.05
2017-12-19T02:54:19.055Z,86.67
2017-12-19T02:54:59.595Z,86.86
2017-12-19T02:55:40.150Z,87.24
2017-12-19T02:56:20.696Z,86.38
2017-12-19T02:57:01.231Z,86.47
2017-12-19T02:57:41.776Z,86.57
2017-12-19T02:58:22.329Z,86.38
2017-12-19T02:59:02.891Z,86.57
2017-12-19T02:59:43.431Z,86.19
2017-12-19T03:00:24.018Z,86.38
2017-12-19T03:01:04.537Z,86.19
2017-12-19T03:01:45.075Z,86.38
2017-12-19T03:02:25.626Z,86
2017-12-19T03:03:06.147Z,86.19
2017-12-19T03:03:46.702Z,86.29
2017-12-19T03:04:27.236Z,86.29
2017-12-19T03:05:07.793Z,86
2017-12-19T03:05:48.342Z,86
2017-12-19T03:06:28.880Z,86.38
2017-12-19T03:07:09.417Z,86.47
2017-12-19T03:07:49.955Z,86.57
2017-12-19T03:08:30.478Z,86.86
2017-12-19T03:09:11.023Z,86.76
2017-12-19T03:09:51.555Z,86.76
2017-12-19T03:10:32.221Z,86.86
2017-12-19T03:11:12.656Z,86.86
2017-12-19T03:11:53.198Z,86.76
2017-12-19T03:12:33.750Z,86.57
2017-12-19T03:13:14.265Z,86.38
2017-12-19T03:13:54.826Z,86.76
2017-12-19T03:14:35.349Z,86.86
2017-12-19T03:15:15.886Z,86.29
2017-12-19T03:15:56.440Z,86.29
2017-12-19T03:16:36.980Z,86.38
2017-12-19T03:17:17.488Z,86.19
2017-12-19T03:17:58.051Z,86.1
2017-12-19T03:18:38.606Z,86.38
2017-12-19T03:19:19.163Z,86.47
2017-12-19T03:19:59.706Z,87.24
2017-12-19T03:20:40.237Z,87.14
2017-12-19T03:21:20.854Z,87.05
2017-12-19T03:22:01.396Z,87.34
2017-12-19T03:22:41.953Z,86.67
2017-12-19T03:23:22.492Z,87.24
2017-12-19T03:24:03.030Z,86.76
2017-12-19T03:24:43.572Z,86.47
2017-12-19T03:27:01.678Z,86.95
2017-12-19T03:27:42.261Z,86.67
2017-12-19T03:28:22.803Z,86.57
2017-12-19T03:29:03.338Z,86.29
2017-12-19T03:29:43.886Z,86.19
2017-12-19T03:30:24.418Z,85.53
2017-12-19T03:31:04.992Z,85.62
2017-12-19T03:31:45.512Z,85.91
2017-12-19T03:32:26.038Z,86.19
2017-12-19T03:33:06.568Z,86.1
2017-12-19T03:33:47.106Z,86.47
2017-12-19T03:34:27.665Z,86.57
2017-12-19T03:35:08.235Z,86.67
2017-12-19T03:35:48.718Z,86.82
2017-12-19T03:36:29.255Z,87.43
2017-12-19T03:37:09.785Z,87.05
2017-12-19T03:37:50.338Z,86.86
2017-12-19T03:38:30.880Z,86.76
2017-12-19T03:39:11.405Z,87.14
2017-12-19T03:39:51.940Z,86.76
2017-12-19T03:40:32.472Z,86.67
2017-12-19T03:41:13.046Z,86.19
2017-12-19T03:41:53.597Z,85.53
2017-12-19T03:42:34.155Z,85.72
2017-12-19T03:43:14.710Z,85.43
2017-12-19T03:43:55.240Z,85.43
2017-12-19T03:44:35.762Z,85.34
2017-12-19T03:45:16.291Z,85.43
2017-12-19T03:45:56.840Z,85.72
2017-12-19T03:46:37.364Z,85.81
2017-12-19T03:47:17.912Z,86.19
2017-12-19T03:47:58.433Z,86.76
2017-12-19T03:48:38.993Z,86.29
2017-12-19T03:49:19.568Z,87.05
2017-12-19T03:50:00.105Z,86.67
2017-12-19T03:50:40.651Z,86.57
2017-12-19T03:51:21.168Z,86.76
2017-12-19T03:52:01.706Z,86.67
2017-12-19T03:52:42.224Z,86.67
2017-12-19T03:53:22.807Z,86.86
2017-12-19T03:54:03.340Z,86.47
2017-12-19T03:54:43.888Z,86.38
2017-12-19T03:55:24.418Z,86
2017-12-19T03:56:04.970Z,86
2017-12-19T03:56:45.490Z,86.19
2017-12-19T03:57:26.061Z,85.91
2017-12-19T03:58:06.601Z,85.81
2017-12-19T03:58:47.125Z,85.34
2017-12-19T03:59:27.649Z,85.81
2017-12-19T04:00:08.184Z,85.72
2017-12-19T04:00:48.714Z,85.91
2017-12-19T04:01:29.226Z,86.29
2017-12-19T04:02:09.802Z,86.19
2017-12-19T04:02:50.381Z,86.19
2017-12-19T04:03:30.918Z,87.14
2017-12-19T04:04:11.447Z,87.52
2017-12-19T04:04:52.026Z,87.14
2017-12-19T04:05:32.568Z,87.05
2017-12-19T04:06:13.099Z,87.43
2017-12-19T04:06:53.640Z,88.09
2017-12-19T04:07:34.186Z,88.19
2017-12-19T04:08:14.765Z,88
2017-12-19T04:08:55.267Z,88.71
2017-12-19T04:09:35.775Z,88.81
2017-12-19T04:10:16.320Z,89
2017-12-19T04:10:56.872Z,88.95
2017-12-19T04:11:37.399Z,89.23
2017-12-19T04:12:17.961Z,88.85
2017-12-19T04:12:58.498Z,89.04
2017-12-19T04:13:39.048Z,89.04
2017-12-19T04:14:19.568Z,89.23
2017-12-19T04:15:00.135Z,89.04
2017-12-19T04:15:40.687Z,88.95
2017-12-19T04:16:21.310Z,89.04
2017-12-19T04:17:01.812Z,89.09
2017-12-19T04:17:42.391Z,89.76
2017-12-19T04:18:22.921Z,89.67
2017-12-19T04:19:03.475Z,90.33
2017-12-19T04:19:44.019Z,90.71
2017-12-19T04:20:24.561Z,90.71
2017-12-19T04:21:05.097Z,90.71
2017-12-19T04:21:45.654Z,90.8
2017-12-19T04:22:26.199Z,90.8
2017-12-19T04:23:06.788Z,90.33
2017-12-19T04:23:47.311Z,90.33
2017-12-19T04:24:27.875Z,90.8
2017-12-19T04:25:08.381Z,90.71
2017-12-19T04:25:48.927Z,90.9
2017-12-19T04:26:29.454Z,90.61
2017-12-19T04:27:09.998Z,90.85
2017-12-19T04:27:50.531Z,90.14
2017-12-19T04:28:31.066Z,90.52
2017-12-19T04:29:11.567Z,90.52
2017-12-19T04:29:52.097Z,90.47
2017-12-19T04:30:32.643Z,90.33
2017-12-19T04:31:13.200Z,90.71
2017-12-19T04:31:53.734Z,90.61
2017-12-19T04:32:34.259Z,90.52
2017-12-19T04:33:14.800Z,90.52
2017-12-19T04:33:55.344Z,90.47
2017-12-19T04:34:35.862Z,90.28
2017-12-19T04:35:16.395Z,90.37
2017-12-19T04:35:56.932Z,90.75
2017-12-19T04:36:37.466Z,89.86
2017-12-19T04:37:18.000Z,90.42
2017-12-19T04:37:58.552Z,90.37
2017-12-19T04:38:39.120Z,90.37
2017-12-19T04:39:19.671Z,90.47
2017-12-19T04:40:00.219Z,90.37
2017-12-19T04:40:40.757Z,90.28
2017-12-19T04:41:21.316Z,90.37
2017-12-19T04:42:01.862Z,89.9
2017-12-19T04:42:42.387Z,90
2017-12-19T04:43:22.925Z,90.19
2017-12-19T04:44:03.453Z,90.37
2017-12-19T04:44:44.011Z,90.56
2017-12-19T04:45:24.544Z,90.47
2017-12-19T04:46:05.051Z,90.56
2017-12-19T04:46:45.591Z,90.56
2017-12-19T04:47:26.134Z,90.14
2017-12-19T04:48:06.669Z,89.76
2017-12-19T04:48:47.226Z,90.52
2017-12-19T04:49:27.779Z,90.19
2017-12-19T04:50:08.328Z,90.61
2017-12-19T04:50:48.872Z,90.75
2017-12-19T04:51:29.418Z,90.75
2017-12-19T04:52:10.002Z,90.52
2017-12-19T04:52:50.487Z,90.66
2017-12-19T04:53:31.046Z,90.85
2017-12-19T04:54:11.581Z,90.75
2017-12-19T04:54:52.117Z,90.75
2017-12-19T04:55:32.638Z,90.94
2017-12-19T04:56:13.210Z,90.66
2017-12-19T04:56:53.752Z,90.37
2017-12-19T04:57:34.292Z,90.47
2017-12-19T04:58:14.827Z,90.47
2017-12-19T04:58:55.371Z,90.47
2017-12-19T04:59:35.924Z,90.47
2017-12-19T05:00:16.474Z,90.28
2017-12-19T05:00:57.004Z,90.56
2017-12-19T05:01:37.545Z,90.37
2017-12-19T05:02:18.084Z,90.56
2017-12-19T05:02:58.647Z,90.28
2017-12-19T05:03:39.202Z,89.61
2017-12-19T05:04:19.737Z,89.8
2017-12-19T05:05:00.268Z,89.71
2017-12-19T05:05:40.813Z,89.9
2017-12-19T05:06:21.357Z,88.67
2017-12-19T05:07:01.892Z,89.04
2017-12-19T05:07:42.445Z,89.14
2017-12-19T05:08:23.006Z,89.23
2017-12-19T05:09:03.562Z,88.67
2017-12-19T05:09:44.094Z,88.76
2017-12-19T05:10:24.639Z,89.04
2017-12-19T05:11:05.214Z,89.14
2017-12-19T05:11:45.742Z,88.67
2017-12-19T05:12:26.250Z,88.76
2017-12-19T05:13:06.817Z,88.67
2017-12-19T05:13:47.366Z,88.85
2017-12-19T05:14:27.904Z,89.04
2017-12-19T05:15:08.446Z,88.95
2017-12-19T05:15:48.999Z,88.38
2017-12-19T05:16:29.548Z,88.47
2017-12-19T05:17:10.075Z,88.85
2017-12-19T05:17:50.616Z,89.04
2017-12-19T05:18:31.169Z,88.57
2017-12-19T05:19:11.716Z,88.19
2017-12-19T05:19:52.287Z,88.47
2017-12-19T05:20:32.823Z,88.38
2017-12-19T05:21:13.357Z,88.47
2017-12-19T05:21:53.889Z,88.38
2017-12-19T05:22:34.447Z,88.19
2017-12-19T05:23:15.037Z,88.38
2017-12-19T05:23:55.599Z,88.28
2017-12-19T05:24:36.147Z,88.28
2017-12-19T05:25:16.714Z,88.09
2017-12-19T05:25:57.268Z,87.52
2017-12-19T05:26:37.811Z,86.95
2017-12-19T05:27:18.403Z,86.76
2017-12-19T05:27:58.954Z,86.57
2017-12-19T05:28:39.487Z,86.19
2017-12-19T05:29:20.010Z,86.19
2017-12-19T05:30:00.573Z,86.19
2017-12-19T05:30:41.094Z,86.38
2017-12-19T05:31:21.645Z,86.1
2017-12-19T05:32:02.187Z,86.29
2017-12-19T05:32:42.733Z,86.19
2017-12-19T22:20:06.009Z,98.02
2017-12-19T22:20:46.525Z,98.02
2017-12-19T22:21:27.050Z,98.21
2017-12-19T22:22:07.625Z,98.31
2017-12-19T22:22:48.158Z,97.83
2017-12-19T22:23:28.742Z,98.26
2017-12-19T22:24:09.244Z,98.21
2017-12-19T22:24:49.794Z,98.31
2017-12-19T22:25:30.496Z,98.31
2017-12-19T22:26:11.088Z,98.31
2017-12-19T22:26:51.655Z,98.12
2017-12-19T22:27:32.207Z,98.02
2017-12-19T22:28:12.755Z,97.78
2017-12-19T22:28:56.181Z,98.16
2017-12-19T22:29:33.871Z,98.31
2017-12-19T22:30:14.432Z,98.69
2017-12-19T22:30:54.960Z,98.31
2017-12-19T22:31:35.494Z,98.4
2017-12-19T22:32:16.498Z,98.5
2017-12-19T22:32:57.039Z,98.21
2017-12-19T22:33:37.600Z,98.12
2017-12-19T22:34:18.122Z,97.97
2017-12-19T22:34:58.665Z,98.35
2017-12-19T22:35:42.452Z,98.92
2017-12-19T22:36:23.045Z,99.11
2017-12-19T22:37:06.844Z,98.54
2017-12-19T22:37:44.423Z,98.92
2017-12-19T22:38:24.967Z,98.92
2017-12-19T22:39:05.534Z,98.83
2017-12-19T22:39:46.109Z,98.59
2017-12-19T22:40:26.622Z,99.16
2017-12-19T22:41:07.187Z,98.31
2017-12-19T22:41:47.722Z,97.97
2017-12-19T22:42:28.234Z,98.16
2017-12-19T22:43:08.811Z,98.07
2017-12-19T22:43:49.397Z,98.35
2017-12-19T22:44:29.919Z,98.16
2017-12-19T22:45:10.489Z,98.35
2017-12-19T22:45:50.983Z,98.21
2017-12-19T22:46:31.598Z,98.16
2017-12-19T22:47:12.105Z,98.64
2017-12-19T22:47:52.642Z,98.26
2017-12-19T22:48:33.175Z,98.26
2017-12-19T22:49:13.711Z,98.16
2017-12-19T22:49:54.240Z,98.26
2017-12-19T22:50:34.811Z,98.54
2017-12-19T22:51:15.296Z,98.31
2017-12-19T22:51:55.850Z,98.4
2017-12-19T22:52:36.401Z,98.69
2017-12-19T22:53:16.971Z,98.26
2017-12-19T22:53:57.563Z,98.54
2017-12-19T22:54:38.066Z,98.4
2017-12-19T22:55:18.616Z,98.4
2017-12-19T22:55:59.171Z,98.31
2017-12-19T22:56:39.706Z,98.4
2017-12-19T22:57:20.259Z,98.31
2017-12-19T22:58:00.806Z,98.69
2017-12-19T22:58:41.364Z,97.83
2017-12-19T22:59:21.988Z,98.31
2017-12-19T23:00:02.529Z,98.4
2017-12-19T23:00:43.091Z,97.74
2017-12-19T23:01:23.648Z,98.21
2017-12-19T23:02:04.157Z,98.26
2017-12-19T23:02:44.737Z,97.97
2017-12-19T23:03:25.266Z,97.78
2017-12-19T23:04:05.770Z,98.35
2017-12-19T23:04:46.376Z,99.21
2017-12-19T23:05:26.880Z,98.92
2017-12-19T23:06:07.444Z,98.73
2017-12-19T23:06:47.949Z,98.79
2017-12-19T23:07:28.507Z,98.92
2017-12-19T23:08:09.066Z,98.5
2017-12-19T23:08:49.581Z,98.92
2017-12-19T23:09:30.141Z,98.45
2017-12-19T23:10:10.682Z,98.16
2017-12-19T23:10:51.286Z,98.31
2017-12-19T23:11:31.854Z,98.31
2017-12-19T23:12:12.404Z,98.5
2017-12-19T23:12:52.960Z,98.31
2017-12-19T23:13:33.528Z,99.16
2017-12-19T23:14:14.075Z,98.21
2017-12-19T23:14:54.636Z,98.4
2017-12-19T23:15:35.438Z,98.21
2017-12-19T23:16:15.699Z,97.92
2017-12-19T23:16:56.282Z,98.12
2017-12-19T23:17:36.819Z,98.21
2017-12-19T23:18:17.367Z,97.92
2017-12-19T23:18:57.927Z,97.74
2017-12-19T23:19:38.478Z,97.45
2017-12-19T23:20:19.030Z,97.07
2017-12-19T23:20:59.556Z,97.64
2017-12-19T23:21:40.075Z,97.64
2017-12-19T23:22:20.604Z,96.79
2017-12-19T23:23:01.152Z,96.98
2017-12-19T23:23:41.675Z,97.64
2017-12-19T23:24:22.237Z,97.45
2017-12-19T23:25:02.771Z,97.45
2017-12-19T23:25:43.308Z,97.07
2017-12-19T23:26:23.862Z,97.45
2017-12-19T23:27:04.408Z,97.45
2017-12-19T23:27:44.948Z,97.36
2017-12-19T23:28:25.482Z,97.45
2017-12-19T23:29:05.999Z,97.92
2017-12-19T23:29:46.574Z,98.02
2017-12-19T23:30:27.119Z,97.36
2017-12-19T23:31:07.612Z,97.55
2017-12-19T23:31:48.149Z,97.17
2017-12-19T23:32:28.666Z,96.5
2017-12-19T23:33:09.219Z,96.31
2017-12-19T23:33:49.779Z,96.69
2017-12-19T23:34:30.308Z,96.79
2017-12-19T23:35:10.862Z,97.64
2017-12-19T23:35:51.376Z,97.45
2017-12-19T23:36:31.940Z,96.69
2017-12-19T23:37:12.517Z,97.27
2017-12-19T23:37:53.049Z,97.64
2017-12-19T23:38:33.596Z,97.27
2017-12-19T23:39:14.186Z,97.17
2017-12-19T23:39:54.739Z,97.17
2017-12-19T23:40:35.304Z,97.64
2017-12-19T23:41:15.793Z,97.55
2017-12-19T23:41:56.360Z,97.55
2017-12-19T23:42:36.890Z,97.55
2017-12-19T23:43:17.389Z,97.45
2017-12-19T23:43:57.886Z,97.64
2017-12-19T23:44:38.479Z,97.64
2017-12-19T23:45:18.988Z,97.45
2017-12-19T23:45:59.472Z,97.74
2017-12-19T23:46:40.041Z,97.64
2017-12-19T23:47:20.555Z,97.45
2017-12-19T23:48:01.320Z,97.45
2017-12-19T23:48:41.853Z,97.45
2017-12-19T23:49:22.386Z,97.64
2017-12-19T23:50:02.945Z,96.88
2017-12-19T23:50:43.484Z,97.07
2017-12-19T23:51:24.046Z,97.64
2017-12-19T23:52:04.627Z,97.27
2017-12-19T23:52:45.187Z,97.17
2017-12-19T23:53:25.661Z,96.88
2017-12-19T23:54:06.202Z,96.88
2017-12-19T23:54:46.752Z,96.79
2017-12-19T23:55:27.285Z,97.36
2017-12-19T23:56:07.834Z,97.64
2017-12-19T23:56:48.400Z,96.88
2017-12-19T23:57:28.911Z,97.07
2017-12-19T23:58:09.416Z,97.27
2017-12-19T23:58:49.961Z,97.45
2017-12-19T23:59:30.518Z,97.07
